Malizia 2 — DGCG — position and weather

sailwx.info

Track history (hours):
 
Tides and Currents Weather Stations Pressure Air Temp Water Temp Dewpoint Dewpoint Depression Visibility Wind Speed Wind Dir Waves Ship Positions

Malizia 2

Last reported at 2018-Jul-16 15:01 UTC. Time now 2018-Jul-16 17:56 UTC.
Position N 49°59' W 001°38'.

Type: Sailing vessel. MMSI: 211768710.

Date/timePositionNaut miles runAvg speedWind from/ knotsBaromVisibWave heightAir tempDewpointWater temp
2018-Jul-16 15:01N 49°59' W 001°38'3 9.4
2018-Jul-16 14:39N 50°01' W 001°43'2 9.9
2018-Jul-16 14:28N 50°02' W 001°45'5 6.6
2018-Jul-16 13:46N 50°02' W 001°52'3 8.4
2018-Jul-16 13:26N 50°03' W 001°56'2210.6
2018-Jul-16 11:23N 50°06' W 002°30'3 9.2
2018-Jul-16 11:00N 50°05' W 002°35'4 8.3
2018-Jul-16 10:29N 50°05' W 002°42'3 4.9
2018-Jul-16 09:55N 50°05' W 002°46'3 6.0
2018-Jul-16 09:23N 50°06' W 002°51'3 5.7
2018-Jul-16 08:47N 50°06' W 002°56'3 9.7
2018-Jul-16 08:28N 50°05' W 003°01'4 9.5
2018-Jul-16 08:00N 50°04' W 003°08'4 8.1
2018-Jul-16 07:30N 50°03' W 003°14'4 8.7
2018-Jul-16 07:00N 50°02' W 003°20'  
Track history (hours):
 
Tides and Currents Weather Stations Pressure Air Temp Water Temp Dewpoint Dewpoint Depression Visibility Wind Speed Wind Dir Waves Ship Positions

Malizia 2

Last reported at 2018-Jul-16 15:01 UTC. Time now 2018-Jul-16 17:56 UTC.
Position N 49°59' W 001°38'.

Type: Sailing vessel. MMSI: 211768710.

Date/timePositionNaut miles runAvg speedWind from/ knotsBaromVisibWave heightAir tempDewpointWater temp
2018-Jul-16 15:01N 49°59' W 001°38'3 9.4
2018-Jul-16 14:39N 50°01' W 001°43'2 9.9
2018-Jul-16 14:28N 50°02' W 001°45'5 6.6
2018-Jul-16 13:46N 50°02' W 001°52'3 8.4
2018-Jul-16 13:26N 50°03' W 001°56'2210.6
2018-Jul-16 11:23N 50°06' W 002°30'3 9.2
2018-Jul-16 11:00N 50°05' W 002°35'4 8.3
2018-Jul-16 10:29N 50°05' W 002°42'3 4.9
2018-Jul-16 09:55N 50°05' W 002°46'3 6.0
2018-Jul-16 09:23N 50°06' W 002°51'3 5.7
2018-Jul-16 08:47N 50°06' W 002°56'3 9.7
2018-Jul-16 08:28N 50°05' W 003°01'4 9.5
2018-Jul-16 08:00N 50°04' W 003°08'4 8.1
2018-Jul-16 07:30N 50°03' W 003°14'4 8.7
2018-Jul-16 07:00N 50°02' W 003°20'  

Dump ship's entire track history